sensor_id;sensor_type;location;lat;lon;timestamp;P1;durP1;ratioP1;P2;durP2;ratioP2
82296;SDS011;71899;51.992;8.648;2024-02-23T00:01:20;1.80;;;0.73;;
82296;SDS011;71899;51.992;8.648;2024-02-23T00:03:45;2.85;;;0.88;;
82296;SDS011;71899;51.992;8.648;2024-02-23T00:06:11;2.05;;;1.17;;
82296;SDS011;71899;51.992;8.648;2024-02-23T00:08:37;5.60;;;1.08;;
82296;SDS011;71899;51.992;8.648;2024-02-23T00:11:03;2.53;;;1.10;;
82296;SDS011;71899;51.992;8.648;2024-02-23T00:13:28;2.17;;;0.60;;
82296;SDS011;71899;51.992;8.648;2024-02-23T00:15:53;3.28;;;1.55;;
82296;SDS011;71899;51.992;8.648;2024-02-23T00:18:19;2.67;;;1.20;;
82296;SDS011;71899;51.992;8.648;2024-02-23T00:20:45;1.17;;;0.55;;
82296;SDS011;71899;51.992;8.648;2024-02-23T00:23:11;4.55;;;0.75;;
82296;SDS011;71899;51.992;8.648;2024-02-23T00:25:37;6.68;;;1.00;;
82296;SDS011;71899;51.992;8.648;2024-02-23T00:28:02;0.82;;;0.80;;
82296;SDS011;71899;51.992;8.648;2024-02-23T00:30:28;6.68;;;1.25;;
82296;SDS011;71899;51.992;8.648;2024-02-23T00:32:53;0.68;;;0.68;;
82296;SDS011;71899;51.992;8.648;2024-02-23T00:35:21;1.13;;;1.02;;
82296;SDS011;71899;51.992;8.648;2024-02-23T00:37:46;5.35;;;0.98;;
82296;SDS011;71899;51.992;8.648;2024-02-23T00:40:11;0.88;;;0.80;;
82296;SDS011;71899;51.992;8.648;2024-02-23T00:42:37;1.63;;;0.82;;
82296;SDS011;71899;51.992;8.648;2024-02-23T00:45:02;2.15;;;1.45;;
82296;SDS011;71899;51.992;8.648;2024-02-23T00:47:28;1.27;;;1.00;;
82296;SDS011;71899;51.992;8.648;2024-02-23T00:49:55;2.88;;;1.20;;
82296;SDS011;71899;51.992;8.648;2024-02-23T00:52:20;2.85;;;1.83;;
82296;SDS011;71899;51.992;8.648;2024-02-23T00:54:45;1.33;;;1.23;;
82296;SDS011;71899;51.992;8.648;2024-02-23T00:57:11;2.03;;;0.88;;
82296;SDS011;71899;51.992;8.648;2024-02-23T00:59:36;1.02;;;0.77;;
82296;SDS011;71899;51.992;8.648;2024-02-23T01:02:01;2.15;;;0.90;;
82296;SDS011;71899;51.992;8.648;2024-02-23T01:04:27;0.90;;;0.80;;
82296;SDS011;71899;51.992;8.648;2024-02-23T01:06:52;1.35;;;0.70;;
82296;SDS011;71899;51.992;8.648;2024-02-23T01:09:18;2.58;;;1.00;;
82296;SDS011;71899;51.992;8.648;2024-02-23T01:11:48;0.80;;;0.80;;
82296;SDS011;71899;51.992;8.648;2024-02-23T01:14:14;0.73;;;0.73;;
82296;SDS011;71899;51.992;8.648;2024-02-23T01:16:39;0.82;;;0.82;;
82296;SDS011;71899;51.992;8.648;2024-02-23T01:19:04;2.63;;;0.95;;
82296;SDS011;71899;51.992;8.648;2024-02-23T01:21:30;1.02;;;0.80;;
82296;SDS011;71899;51.992;8.648;2024-02-23T01:23:55;0.90;;;0.90;;
82296;SDS011;71899;51.992;8.648;2024-02-23T01:26:22;0.82;;;0.82;;
82296;SDS011;71899;51.992;8.648;2024-02-23T01:28:48;0.93;;;0.93;;
82296;SDS011;71899;51.992;8.648;2024-02-23T01:31:13;0.88;;;0.88;;
82296;SDS011;71899;51.992;8.648;2024-02-23T01:33:39;0.90;;;0.90;;
82296;SDS011;71899;51.992;8.648;2024-02-23T01:36:07;1.25;;;1.15;;
82296;SDS011;71899;51.992;8.648;2024-02-23T01:38:33;0.80;;;0.80;;
82296;SDS011;71899;51.992;8.648;2024-02-23T01:40:59;1.00;;;0.90;;
82296;SDS011;71899;51.992;8.648;2024-02-23T01:43:25;1.42;;;1.10;;
82296;SDS011;71899;51.992;8.648;2024-02-23T01:45:50;0.93;;;0.90;;
82296;SDS011;71899;51.992;8.648;2024-02-23T01:48:16;1.33;;;0.98;;
82296;SDS011;71899;51.992;8.648;2024-02-23T01:50:42;1.65;;;1.08;;
82296;SDS011;71899;51.992;8.648;2024-02-23T01:53:08;3.03;;;1.05;;
82296;SDS011;71899;51.992;8.648;2024-02-23T01:55:35;1.15;;;1.05;;
82296;SDS011;71899;51.992;8.648;2024-02-23T01:58:02;2.90;;;1.25;;
82296;SDS011;71899;51.992;8.648;2024-02-23T02:00:29;1.83;;;1.23;;
82296;SDS011;71899;51.992;8.648;2024-02-23T02:02:54;2.33;;;1.00;;
82296;SDS011;71899;51.992;8.648;2024-02-23T02:05:20;1.17;;;1.08;;
82296;SDS011;71899;51.992;8.648;2024-02-23T02:07:46;1.42;;;1.20;;
82296;SDS011;71899;51.992;8.648;2024-02-23T02:10:15;2.42;;;1.67;;
82296;SDS011;71899;51.992;8.648;2024-02-23T02:12:42;2.10;;;1.40;;
82296;SDS011;71899;51.992;8.648;2024-02-23T02:15:07;1.40;;;1.15;;
82296;SDS011;71899;51.992;8.648;2024-02-23T02:17:33;1.40;;;1.30;;
82296;SDS011;71899;51.992;8.648;2024-02-23T02:19:59;1.65;;;1.15;;
82296;SDS011;71899;51.992;8.648;2024-02-23T02:22:29;3.72;;;1.52;;
82296;SDS011;71899;51.992;8.648;2024-02-23T02:24:56;2.03;;;1.50;;
82296;SDS011;71899;51.992;8.648;2024-02-23T02:27:22;5.00;;;1.40;;
82296;SDS011;71899;51.992;8.648;2024-02-23T02:29:49;1.73;;;1.30;;
82296;SDS011;71899;51.992;8.648;2024-02-23T02:32:15;3.03;;;1.75;;
82296;SDS011;71899;51.992;8.648;2024-02-23T02:34:40;4.20;;;1.67;;
82296;SDS011;71899;51.992;8.648;2024-02-23T02:37:06;2.28;;;2.05;;
82296;SDS011;71899;51.992;8.648;2024-02-23T02:39:31;2.30;;;2.10;;
82296;SDS011;71899;51.992;8.648;2024-02-23T02:41:56;2.67;;;2.05;;
82296;SDS011;71899;51.992;8.648;2024-02-23T02:44:22;1.73;;;1.60;;
82296;SDS011;71899;51.992;8.648;2024-02-23T02:46:47;2.25;;;2.05;;
82296;SDS011;71899;51.992;8.648;2024-02-23T02:49:12;2.63;;;2.17;;
82296;SDS011;71899;51.992;8.648;2024-02-23T02:51:38;2.75;;;2.47;;
82296;SDS011;71899;51.992;8.648;2024-02-23T02:54:04;2.85;;;2.55;;
82296;SDS011;71899;51.992;8.648;2024-02-23T02:56:29;6.80;;;2.30;;
82296;SDS011;71899;51.992;8.648;2024-02-23T02:58:55;2.58;;;2.10;;
82296;SDS011;71899;51.992;8.648;2024-02-23T03:01:20;5.13;;;2.42;;
82296;SDS011;71899;51.992;8.648;2024-02-23T03:03:46;3.40;;;2.42;;
82296;SDS011;71899;51.992;8.648;2024-02-23T03:06:11;2.67;;;2.47;;
82296;SDS011;71899;51.992;8.648;2024-02-23T03:08:36;3.42;;;2.47;;
82296;SDS011;71899;51.992;8.648;2024-02-23T03:11:02;5.13;;;3.60;;
82296;SDS011;71899;51.992;8.648;2024-02-23T03:13:27;1.98;;;1.77;;
82296;SDS011;71899;51.992;8.648;2024-02-23T03:15:52;2.80;;;2.10;;
82296;SDS011;71899;51.992;8.648;2024-02-23T03:18:18;3.70;;;2.28;;
82296;SDS011;71899;51.992;8.648;2024-02-23T03:20:43;1.73;;;1.63;;
82296;SDS011;71899;51.992;8.648;2024-02-23T03:23:09;2.92;;;1.67;;
82296;SDS011;71899;51.992;8.648;2024-02-23T03:25:34;2.17;;;1.98;;
82296;SDS011;71899;51.992;8.648;2024-02-23T03:28:00;6.20;;;1.63;;
82296;SDS011;71899;51.992;8.648;2024-02-23T03:30:25;2.88;;;1.67;;
82296;SDS011;71899;51.992;8.648;2024-02-23T03:32:50;3.53;;;1.50;;
82296;SDS011;71899;51.992;8.648;2024-02-23T03:35:16;5.07;;;1.70;;
82296;SDS011;71899;51.992;8.648;2024-02-23T03:37:41;3.05;;;1.23;;
82296;SDS011;71899;51.992;8.648;2024-02-23T03:40:07;2.65;;;1.38;;
82296;SDS011;71899;51.992;8.648;2024-02-23T03:42:33;4.07;;;2.75;;
82296;SDS011;71899;51.992;8.648;2024-02-23T03:44:58;6.13;;;1.30;;
82296;SDS011;71899;51.992;8.648;2024-02-23T03:47:23;2.50;;;1.50;;
82296;SDS011;71899;51.992;8.648;2024-02-23T03:49:50;2.10;;;1.15;;
82296;SDS011;71899;51.992;8.648;2024-02-23T03:52:15;1.88;;;1.27;;
82296;SDS011;71899;51.992;8.648;2024-02-23T03:54:41;1.23;;;1.13;;
82296;SDS011;71899;51.992;8.648;2024-02-23T03:57:06;2.35;;;1.27;;
82296;SDS011;71899;51.992;8.648;2024-02-23T03:59:31;2.78;;;1.17;;
82296;SDS011;71899;51.992;8.648;2024-02-23T04:01:57;4.13;;;1.40;;
82296;SDS011;71899;51.992;8.648;2024-02-23T04:04:22;3.58;;;1.33;;
82296;SDS011;71899;51.992;8.648;2024-02-23T04:06:47;3.50;;;1.70;;
82296;SDS011;71899;51.992;8.648;2024-02-23T04:09:13;3.30;;;1.40;;
82296;SDS011;71899;51.992;8.648;2024-02-23T04:11:38;3.03;;;1.40;;
82296;SDS011;71899;51.992;8.648;2024-02-23T04:14:04;4.85;;;1.48;;
82296;SDS011;71899;51.992;8.648;2024-02-23T04:16:30;3.92;;;1.85;;
82296;SDS011;71899;51.992;8.648;2024-02-23T04:18:56;4.25;;;1.40;;
82296;SDS011;71899;51.992;8.648;2024-02-23T04:21:22;4.22;;;1.15;;
82296;SDS011;71899;51.992;8.648;2024-02-23T04:23:47;4.80;;;1.50;;
82296;SDS011;71899;51.992;8.648;2024-02-23T04:26:12;5.75;;;1.30;;
82296;SDS011;71899;51.992;8.648;2024-02-23T04:28:41;7.18;;;2.20;;
82296;SDS011;71899;51.992;8.648;2024-02-23T04:31:08;2.08;;;1.00;;
82296;SDS011;71899;51.992;8.648;2024-02-23T04:33:34;2.08;;;1.00;;
82296;SDS011;71899;51.992;8.648;2024-02-23T04:36:00;2.28;;;1.65;;
82296;SDS011;71899;51.992;8.648;2024-02-23T04:38:26;1.90;;;1.25;;
82296;SDS011;71899;51.992;8.648;2024-02-23T04:40:51;3.50;;;1.40;;
82296;SDS011;71899;51.992;8.648;2024-02-23T04:43:16;8.77;;;1.65;;
82296;SDS011;71899;51.992;8.648;2024-02-23T04:45:42;3.58;;;1.30;;
82296;SDS011;71899;51.992;8.648;2024-02-23T04:48:07;3.08;;;1.25;;
82296;SDS011;71899;51.992;8.648;2024-02-23T04:50:35;4.97;;;1.90;;
82296;SDS011;71899;51.992;8.648;2024-02-23T04:53:02;2.00;;;1.02;;
82296;SDS011;71899;51.992;8.648;2024-02-23T04:55:27;3.55;;;1.33;;
82296;SDS011;71899;51.992;8.648;2024-02-23T04:57:52;8.05;;;1.70;;
82296;SDS011;71899;51.992;8.648;2024-02-23T05:00:18;6.72;;;2.22;;
82296;SDS011;71899;51.992;8.648;2024-02-23T05:02:44;2.78;;;1.50;;
82296;SDS011;71899;51.992;8.648;2024-02-23T05:05:09;2.47;;;1.90;;
82296;SDS011;71899;51.992;8.648;2024-02-23T05:07:34;6.95;;;1.48;;
82296;SDS011;71899;51.992;8.648;2024-02-23T05:10:00;3.53;;;1.42;;
82296;SDS011;71899;51.992;8.648;2024-02-23T05:12:25;2.15;;;1.20;;
82296;SDS011;71899;51.992;8.648;2024-02-23T05:14:52;2.53;;;1.40;;
82296;SDS011;71899;51.992;8.648;2024-02-23T05:17:17;3.97;;;1.40;;
82296;SDS011;71899;51.992;8.648;2024-02-23T05:19:44;2.72;;;1.42;;
82296;SDS011;71899;51.992;8.648;2024-02-23T05:22:11;2.08;;;1.20;;
82296;SDS011;71899;51.992;8.648;2024-02-23T05:24:37;5.20;;;1.58;;
82296;SDS011;71899;51.992;8.648;2024-02-23T05:27:02;2.97;;;1.75;;
82296;SDS011;71899;51.992;8.648;2024-02-23T05:29:29;3.03;;;1.92;;
82296;SDS011;71899;51.992;8.648;2024-02-23T05:31:55;4.55;;;1.85;;
82296;SDS011;71899;51.992;8.648;2024-02-23T05:34:20;2.92;;;1.60;;
82296;SDS011;71899;51.992;8.648;2024-02-23T05:36:46;4.07;;;2.08;;
82296;SDS011;71899;51.992;8.648;2024-02-23T05:39:12;2.50;;;1.60;;
82296;SDS011;71899;51.992;8.648;2024-02-23T05:41:40;4.57;;;1.45;;
82296;SDS011;71899;51.992;8.648;2024-02-23T05:44:06;5.15;;;1.70;;
82296;SDS011;71899;51.992;8.648;2024-02-23T05:46:32;3.50;;;1.65;;
82296;SDS011;71899;51.992;8.648;2024-02-23T05:48:58;2.88;;;1.70;;
82296;SDS011;71899;51.992;8.648;2024-02-23T05:51:23;7.65;;;2.10;;
82296;SDS011;71899;51.992;8.648;2024-02-23T05:53:49;8.50;;;2.08;;
82296;SDS011;71899;51.992;8.648;2024-02-23T05:56:14;1.80;;;1.52;;
82296;SDS011;71899;51.992;8.648;2024-02-23T05:58:40;2.17;;;1.45;;
82296;SDS011;71899;51.992;8.648;2024-02-23T06:01:07;3.78;;;1.60;;
82296;SDS011;71899;51.992;8.648;2024-02-23T06:03:33;5.70;;;2.15;;
82296;SDS011;71899;51.992;8.648;2024-02-23T06:05:58;3.15;;;1.48;;
82296;SDS011;71899;51.992;8.648;2024-02-23T06:08:23;2.08;;;1.40;;
82296;SDS011;71899;51.992;8.648;2024-02-23T06:10:49;6.07;;;1.65;;
82296;SDS011;71899;51.992;8.648;2024-02-23T06:13:14;5.93;;;1.52;;
82296;SDS011;71899;51.992;8.648;2024-02-23T06:15:39;3.97;;;1.40;;
82296;SDS011;71899;51.992;8.648;2024-02-23T06:18:05;9.95;;;1.70;;
82296;SDS011;71899;51.992;8.648;2024-02-23T06:20:31;3.97;;;1.20;;
82296;SDS011;71899;51.992;8.648;2024-02-23T06:22:57;4.30;;;2.03;;
82296;SDS011;71899;51.992;8.648;2024-02-23T06:25:22;4.93;;;1.50;;
82296;SDS011;71899;51.992;8.648;2024-02-23T06:27:48;1.83;;;1.20;;
82296;SDS011;71899;51.992;8.648;2024-02-23T06:30:13;3.40;;;1.15;;
82296;SDS011;71899;51.992;8.648;2024-02-23T06:32:39;2.95;;;1.17;;
82296;SDS011;71899;51.992;8.648;2024-02-23T06:35:04;4.40;;;1.40;;
82296;SDS011;71899;51.992;8.648;2024-02-23T06:37:31;8.20;;;1.25;;
82296;SDS011;71899;51.992;8.648;2024-02-23T06:39:57;5.47;;;1.73;;
82296;SDS011;71899;51.992;8.648;2024-02-23T06:42:22;2.10;;;1.88;;
82296;SDS011;71899;51.992;8.648;2024-02-23T06:44:48;2.60;;;1.13;;
82296;SDS011;71899;51.992;8.648;2024-02-23T06:47:15;5.32;;;1.77;;
82296;SDS011;71899;51.992;8.648;2024-02-23T06:49:43;3.20;;;1.40;;
82296;SDS011;71899;51.992;8.648;2024-02-23T06:52:09;0.90;;;0.90;;
82296;SDS011;71899;51.992;8.648;2024-02-23T06:54:36;2.55;;;0.88;;
82296;SDS011;71899;51.992;8.648;2024-02-23T06:57:04;2.92;;;1.00;;
82296;SDS011;71899;51.992;8.648;2024-02-23T06:59:29;2.13;;;1.08;;
82296;SDS011;71899;51.992;8.648;2024-02-23T07:01:55;7.70;;;1.27;;
82296;SDS011;71899;51.992;8.648;2024-02-23T07:04:20;2.47;;;1.25;;
82296;SDS011;71899;51.992;8.648;2024-02-23T07:06:46;3.53;;;1.05;;
82296;SDS011;71899;51.992;8.648;2024-02-23T07:09:11;2.78;;;1.00;;
82296;SDS011;71899;51.992;8.648;2024-02-23T07:11:37;1.98;;;1.08;;
82296;SDS011;71899;51.992;8.648;2024-02-23T07:14:03;5.50;;;1.00;;
82296;SDS011;71899;51.992;8.648;2024-02-23T07:16:29;2.85;;;1.27;;
82296;SDS011;71899;51.992;8.648;2024-02-23T07:18:54;2.92;;;1.25;;
82296;SDS011;71899;51.992;8.648;2024-02-23T07:21:20;2.88;;;1.10;;
82296;SDS011;71899;51.992;8.648;2024-02-23T07:23:46;3.35;;;1.20;;
82296;SDS011;71899;51.992;8.648;2024-02-23T07:26:11;3.35;;;1.33;;
82296;SDS011;71899;51.992;8.648;2024-02-23T07:28:36;3.88;;;0.70;;
82296;SDS011;71899;51.992;8.648;2024-02-23T07:31:02;1.02;;;0.68;;
82296;SDS011;71899;51.992;8.648;2024-02-23T07:33:27;3.22;;;1.00;;
82296;SDS011;71899;51.992;8.648;2024-02-23T07:35:52;1.40;;;0.80;;
82296;SDS011;71899;51.992;8.648;2024-02-23T07:38:18;2.85;;;0.60;;
82296;SDS011;71899;51.992;8.648;2024-02-23T07:40:43;2.30;;;1.40;;
82296;SDS011;71899;51.992;8.648;2024-02-23T07:43:09;3.05;;;0.80;;
82296;SDS011;71899;51.992;8.648;2024-02-23T07:45:36;1.90;;;0.80;;
82296;SDS011;71899;51.992;8.648;2024-02-23T07:48:01;2.67;;;0.77;;
82296;SDS011;71899;51.992;8.648;2024-02-23T07:50:27;3.13;;;0.60;;
82296;SDS011;71899;51.992;8.648;2024-02-23T07:52:52;1.98;;;0.70;;
82296;SDS011;71899;51.992;8.648;2024-02-23T07:55:18;1.70;;;0.98;;
82296;SDS011;71899;51.992;8.648;2024-02-23T07:57:43;1.40;;;1.20;;
82296;SDS011;71899;51.992;8.648;2024-02-23T08:00:08;2.15;;;1.10;;
82296;SDS011;71899;51.992;8.648;2024-02-23T08:02:38;2.72;;;0.80;;
82296;SDS011;71899;51.992;8.648;2024-02-23T08:05:03;6.28;;;1.10;;
82296;SDS011;71899;51.992;8.648;2024-02-23T08:07:29;6.82;;;1.20;;
82296;SDS011;71899;51.992;8.648;2024-02-23T08:09:56;4.32;;;2.00;;
82296;SDS011;71899;51.992;8.648;2024-02-23T08:12:22;0.98;;;0.90;;
82296;SDS011;71899;51.992;8.648;2024-02-23T08:14:47;6.07;;;1.02;;
82296;SDS011;71899;51.992;8.648;2024-02-23T08:17:14;4.80;;;1.20;;
82296;SDS011;71899;51.992;8.648;2024-02-23T08:19:39;3.78;;;0.80;;
82296;SDS011;71899;51.992;8.648;2024-02-23T08:22:05;6.05;;;1.10;;
82296;SDS011;71899;51.992;8.648;2024-02-23T08:24:30;2.72;;;1.20;;
82296;SDS011;71899;51.992;8.648;2024-02-23T08:26:56;1.55;;;0.80;;
82296;SDS011;71899;51.992;8.648;2024-02-23T08:29:21;3.80;;;1.35;;
82296;SDS011;71899;51.992;8.648;2024-02-23T08:31:47;7.43;;;1.65;;
82296;SDS011;71899;51.992;8.648;2024-02-23T08:34:13;4.20;;;1.25;;
82296;SDS011;71899;51.992;8.648;2024-02-23T08:36:38;1.10;;;0.80;;
82296;SDS011;71899;51.992;8.648;2024-02-23T08:39:04;1.23;;;0.75;;
82296;SDS011;71899;51.992;8.648;2024-02-23T08:41:29;2.88;;;0.93;;
82296;SDS011;71899;51.992;8.648;2024-02-23T08:43:55;4.15;;;0.93;;
82296;SDS011;71899;51.992;8.648;2024-02-23T08:46:20;9.18;;;1.90;;
82296;SDS011;71899;51.992;8.648;2024-02-23T08:48:46;1.92;;;0.88;;
82296;SDS011;71899;51.992;8.648;2024-02-23T08:51:12;1.65;;;0.70;;
82296;SDS011;71899;51.992;8.648;2024-02-23T08:53:37;4.85;;;0.63;;
82296;SDS011;71899;51.992;8.648;2024-02-23T08:56:03;8.18;;;1.15;;
82296;SDS011;71899;51.992;8.648;2024-02-23T08:58:29;2.55;;;0.93;;
82296;SDS011;71899;51.992;8.648;2024-02-23T09:00:54;2.65;;;0.90;;
82296;SDS011;71899;51.992;8.648;2024-02-23T09:03:20;3.70;;;1.10;;
82296;SDS011;71899;51.992;8.648;2024-02-23T09:05:45;3.47;;;0.60;;
82296;SDS011;71899;51.992;8.648;2024-02-23T09:08:12;3.25;;;0.73;;
82296;SDS011;71899;51.992;8.648;2024-02-23T09:10:37;3.38;;;1.02;;
82296;SDS011;71899;51.992;8.648;2024-02-23T09:13:02;2.67;;;1.02;;
82296;SDS011;71899;51.992;8.648;2024-02-23T09:15:28;1.85;;;1.00;;
82296;SDS011;71899;51.992;8.648;2024-02-23T09:17:53;3.40;;;1.00;;
82296;SDS011;71899;51.992;8.648;2024-02-23T09:20:19;2.03;;;0.90;;
82296;SDS011;71899;51.992;8.648;2024-02-23T09:22:45;4.15;;;1.05;;
82296;SDS011;71899;51.992;8.648;2024-02-23T09:25:10;1.70;;;0.70;;
82296;SDS011;71899;51.992;8.648;2024-02-23T09:27:36;3.95;;;0.93;;
82296;SDS011;71899;51.992;8.648;2024-02-23T09:30:05;1.40;;;1.02;;
82296;SDS011;71899;51.992;8.648;2024-02-23T09:32:31;2.03;;;0.60;;
82296;SDS011;71899;51.992;8.648;2024-02-23T09:34:57;5.25;;;1.42;;
82296;SDS011;71899;51.992;8.648;2024-02-23T09:37:22;3.97;;;0.90;;
82296;SDS011;71899;51.992;8.648;2024-02-23T09:39:47;8.65;;;1.40;;
82296;SDS011;71899;51.992;8.648;2024-02-23T09:42:13;1.27;;;0.70;;
82296;SDS011;71899;51.992;8.648;2024-02-23T09:44:39;4.55;;;0.73;;
82296;SDS011;71899;51.992;8.648;2024-02-23T09:47:06;2.38;;;0.77;;
82296;SDS011;71899;51.992;8.648;2024-02-23T09:49:40;3.15;;;0.80;;
82296;SDS011;71899;51.992;8.648;2024-02-23T09:52:09;5.80;;;1.40;;
82296;SDS011;71899;51.992;8.648;2024-02-23T09:54:38;2.00;;;1.80;;
82296;SDS011;71899;51.992;8.648;2024-02-23T09:57:06;1.38;;;0.93;;
82296;SDS011;71899;51.992;8.648;2024-02-23T09:59:32;1.33;;;0.60;;
82296;SDS011;71899;51.992;8.648;2024-02-23T10:01:59;3.75;;;0.85;;
82296;SDS011;71899;51.992;8.648;2024-02-23T10:04:25;2.42;;;0.75;;
82296;SDS011;71899;51.992;8.648;2024-02-23T10:06:54;3.05;;;1.20;;
82296;SDS011;71899;51.992;8.648;2024-02-23T10:09:20;2.65;;;1.52;;
82296;SDS011;71899;51.992;8.648;2024-02-23T10:11:51;3.78;;;0.50;;
82296;SDS011;71899;51.992;8.648;2024-02-23T10:14:18;2.15;;;0.80;;
82296;SDS011;71899;51.992;8.648;2024-02-23T10:16:46;1.42;;;0.80;;
82296;SDS011;71899;51.992;8.648;2024-02-23T10:19:13;5.25;;;0.95;;
82296;SDS011;71899;51.992;8.648;2024-02-23T10:21:38;3.78;;;0.63;;
82296;SDS011;71899;51.992;8.648;2024-02-23T10:24:07;2.60;;;0.90;;
82296;SDS011;71899;51.992;8.648;2024-02-23T10:26:33;5.22;;;0.98;;
82296;SDS011;71899;51.992;8.648;2024-02-23T10:28:59;1.40;;;0.73;;
82296;SDS011;71899;51.992;8.648;2024-02-23T10:31:24;2.92;;;0.68;;
82296;SDS011;71899;51.992;8.648;2024-02-23T10:33:50;2.65;;;1.10;;
82296;SDS011;71899;51.992;8.648;2024-02-23T10:36:18;2.53;;;0.98;;
82296;SDS011;71899;51.992;8.648;2024-02-23T10:38:47;6.28;;;2.30;;
82296;SDS011;71899;51.992;8.648;2024-02-23T10:41:17;2.15;;;0.77;;
82296;SDS011;71899;51.992;8.648;2024-02-23T10:43:47;2.05;;;1.23;;
82296;SDS011;71899;51.992;8.648;2024-02-23T10:46:13;2.40;;;0.80;;
82296;SDS011;71899;51.992;8.648;2024-02-23T10:48:43;4.63;;;2.25;;
82296;SDS011;71899;51.992;8.648;2024-02-23T10:51:10;2.65;;;0.98;;
82296;SDS011;71899;51.992;8.648;2024-02-23T10:53:39;3.78;;;0.80;;
82296;SDS011;71899;51.992;8.648;2024-02-23T10:56:04;3.40;;;1.00;;
82296;SDS011;71899;51.992;8.648;2024-02-23T10:58:30;7.22;;;1.20;;
82296;SDS011;71899;51.992;8.648;2024-02-23T11:00:59;3.75;;;2.03;;
82296;SDS011;71899;51.992;8.648;2024-02-23T11:03:27;2.83;;;1.10;;
82296;SDS011;71899;51.992;8.648;2024-02-23T11:05:56;2.10;;;1.17;;
82296;SDS011;71899;51.992;8.648;2024-02-23T11:08:22;3.80;;;1.63;;
82296;SDS011;71899;51.992;8.648;2024-02-23T11:10:51;8.77;;;1.52;;
82296;SDS011;71899;51.992;8.648;2024-02-23T11:13:30;5.57;;;1.55;;
82296;SDS011;71899;51.992;8.648;2024-02-23T11:16:02;4.68;;;2.25;;
82296;SDS011;71899;51.992;8.648;2024-02-23T11:18:29;6.18;;;2.58;;
82296;SDS011;71899;51.992;8.648;2024-02-23T11:20:55;5.75;;;2.10;;
82296;SDS011;71899;51.992;8.648;2024-02-23T11:23:22;4.20;;;1.70;;
82296;SDS011;71899;51.992;8.648;2024-02-23T11:28:28;6.57;;;2.35;;
82296;SDS011;71899;51.992;8.648;2024-02-23T11:30:56;6.10;;;1.83;;
82296;SDS011;71899;51.992;8.648;2024-02-23T11:33:27;3.60;;;1.70;;
82296;SDS011;71899;51.992;8.648;2024-02-23T11:36:04;5.03;;;1.48;;
82296;SDS011;71899;51.992;8.648;2024-02-23T11:38:29;3.42;;;1.17;;
82296;SDS011;71899;51.992;8.648;2024-02-23T11:40:55;4.40;;;1.60;;
82296;SDS011;71899;51.992;8.648;2024-02-23T11:43:21;3.50;;;1.77;;
82296;SDS011;71899;51.992;8.648;2024-02-23T11:45:47;4.68;;;1.38;;
82296;SDS011;71899;51.992;8.648;2024-02-23T11:48:12;4.55;;;1.20;;
82296;SDS011;71899;51.992;8.648;2024-02-23T11:50:37;4.82;;;1.17;;
82296;SDS011;71899;51.992;8.648;2024-02-23T11:53:02;1.50;;;0.85;;
82296;SDS011;71899;51.992;8.648;2024-02-23T11:55:29;5.88;;;1.30;;
82296;SDS011;71899;51.992;8.648;2024-02-23T11:57:54;2.83;;;0.98;;
82296;SDS011;71899;51.992;8.648;2024-02-23T12:00:20;3.25;;;1.35;;
82296;SDS011;71899;51.992;8.648;2024-02-23T12:02:45;6.13;;;1.25;;
82296;SDS011;71899;51.992;8.648;2024-02-23T12:05:14;3.28;;;0.90;;
82296;SDS011;71899;51.992;8.648;2024-02-23T12:07:39;4.78;;;1.58;;
82296;SDS011;71899;51.992;8.648;2024-02-23T12:10:05;2.92;;;1.15;;
82296;SDS011;71899;51.992;8.648;2024-02-23T12:12:31;3.85;;;1.10;;
82296;SDS011;71899;51.992;8.648;2024-02-23T12:14:58;3.22;;;1.45;;
82296;SDS011;71899;51.992;8.648;2024-02-23T12:17:24;4.25;;;1.08;;
82296;SDS011;71899;51.992;8.648;2024-02-23T12:20:01;2.47;;;0.75;;
82296;SDS011;71899;51.992;8.648;2024-02-23T12:22:27;3.13;;;1.27;;
82296;SDS011;71899;51.992;8.648;2024-02-23T12:24:53;3.17;;;1.50;;
82296;SDS011;71899;51.992;8.648;2024-02-23T12:27:18;4.35;;;1.27;;
82296;SDS011;71899;51.992;8.648;2024-02-23T12:29:53;3.95;;;0.95;;
82296;SDS011;71899;51.992;8.648;2024-02-23T12:32:20;2.47;;;0.80;;
82296;SDS011;71899;51.992;8.648;2024-02-23T12:34:46;2.72;;;0.63;;
82296;SDS011;71899;51.992;8.648;2024-02-23T12:37:15;2.40;;;1.38;;
82296;SDS011;71899;51.992;8.648;2024-02-23T12:39:41;3.80;;;1.00;;
82296;SDS011;71899;51.992;8.648;2024-02-23T12:42:07;2.70;;;0.90;;
82296;SDS011;71899;51.992;8.648;2024-02-23T12:44:32;1.35;;;1.25;;
82296;SDS011;71899;51.992;8.648;2024-02-23T12:46:58;2.17;;;0.80;;
82296;SDS011;71899;51.992;8.648;2024-02-23T12:49:23;7.40;;;0.75;;
82296;SDS011;71899;51.992;8.648;2024-02-23T12:51:49;2.35;;;0.80;;
82296;SDS011;71899;51.992;8.648;2024-02-23T12:54:14;4.25;;;1.08;;
82296;SDS011;71899;51.992;8.648;2024-02-23T12:56:39;2.28;;;0.85;;
82296;SDS011;71899;51.992;8.648;2024-02-23T12:59:05;6.80;;;1.10;;
82296;SDS011;71899;51.992;8.648;2024-02-23T13:01:30;1.45;;;0.77;;
82296;SDS011;71899;51.992;8.648;2024-02-23T13:03:59;4.75;;;1.88;;
82296;SDS011;71899;51.992;8.648;2024-02-23T13:06:24;1.27;;;0.60;;
82296;SDS011;71899;51.992;8.648;2024-02-23T13:08:50;2.35;;;0.57;;
82296;SDS011;71899;51.992;8.648;2024-02-23T13:11:15;0.60;;;0.50;;
82296;SDS011;71899;51.992;8.648;2024-02-23T13:13:41;4.28;;;0.60;;
82296;SDS011;71899;51.992;8.648;2024-02-23T13:16:06;1.75;;;0.70;;
82296;SDS011;71899;51.992;8.648;2024-02-23T13:18:32;1.05;;;0.63;;
82296;SDS011;71899;51.992;8.648;2024-02-23T13:20:58;0.82;;;0.60;;
82296;SDS011;71899;51.992;8.648;2024-02-23T13:23:23;4.25;;;0.52;;
82296;SDS011;71899;51.992;8.648;2024-02-23T13:25:49;2.05;;;0.70;;
82296;SDS011;71899;51.992;8.648;2024-02-23T13:28:14;2.88;;;0.90;;
82296;SDS011;71899;51.992;8.648;2024-02-23T13:30:40;0.60;;;0.60;;
82296;SDS011;71899;51.992;8.648;2024-02-23T13:33:05;2.72;;;0.80;;
82296;SDS011;71899;51.992;8.648;2024-02-23T13:35:31;0.65;;;0.60;;
82296;SDS011;71899;51.992;8.648;2024-02-23T13:37:57;1.15;;;0.50;;
82296;SDS011;71899;51.992;8.648;2024-02-23T13:40:25;2.25;;;1.13;;
82296;SDS011;71899;51.992;8.648;2024-02-23T13:42:50;3.45;;;0.57;;
82296;SDS011;71899;51.992;8.648;2024-02-23T13:45:17;1.25;;;0.68;;
82296;SDS011;71899;51.992;8.648;2024-02-23T13:47:44;2.65;;;0.95;;
82296;SDS011;71899;51.992;8.648;2024-02-23T13:50:27;3.60;;;1.40;;
82296;SDS011;71899;51.992;8.648;2024-02-23T13:52:53;2.45;;;0.73;;
82296;SDS011;71899;51.992;8.648;2024-02-23T13:55:18;1.90;;;0.60;;
82296;SDS011;71899;51.992;8.648;2024-02-23T13:57:45;1.65;;;0.60;;
82296;SDS011;71899;51.992;8.648;2024-02-23T14:00:11;4.40;;;1.08;;
82296;SDS011;71899;51.992;8.648;2024-02-23T14:02:38;2.28;;;0.75;;
82296;SDS011;71899;51.992;8.648;2024-02-23T14:05:05;2.00;;;0.60;;
82296;SDS011;71899;51.992;8.648;2024-02-23T14:07:32;1.38;;;0.70;;
82296;SDS011;71899;51.992;8.648;2024-02-23T14:09:58;0.93;;;0.63;;
82296;SDS011;71899;51.992;8.648;2024-02-23T14:12:23;2.78;;;1.00;;
82296;SDS011;71899;51.992;8.648;2024-02-23T14:14:49;8.00;;;1.08;;
82296;SDS011;71899;51.992;8.648;2024-02-23T14:17:15;6.10;;;1.45;;
82296;SDS011;71899;51.992;8.648;2024-02-23T14:19:40;1.70;;;0.75;;
82296;SDS011;71899;51.992;8.648;2024-02-23T14:22:05;3.17;;;0.80;;
82296;SDS011;71899;51.992;8.648;2024-02-23T14:24:31;2.75;;;0.80;;
82296;SDS011;71899;51.992;8.648;2024-02-23T14:26:57;3.60;;;1.00;;
82296;SDS011;71899;51.992;8.648;2024-02-23T14:29:22;2.35;;;0.85;;
82296;SDS011;71899;51.992;8.648;2024-02-23T14:31:47;3.25;;;1.77;;
82296;SDS011;71899;51.992;8.648;2024-02-23T14:34:13;2.53;;;0.82;;
82296;SDS011;71899;51.992;8.648;2024-02-23T14:36:38;0.57;;;0.57;;
82296;SDS011;71899;51.992;8.648;2024-02-23T14:39:04;2.42;;;0.80;;
82296;SDS011;71899;51.992;8.648;2024-02-23T14:41:32;2.03;;;0.85;;
82296;SDS011;71899;51.992;8.648;2024-02-23T14:43:58;3.65;;;0.70;;